sensor_id;sensor_type;location;lat;lon;timestamp;pressure;altitude;pressure_sealevel;temperature;humidity
64354;BME280;50681;53.334;-6.536;2022-11-25T00:00:02;99178.16;;;7.04;100.00
64354;BME280;50681;53.334;-6.536;2022-11-25T00:02:27;99186.41;;;6.94;100.00
64354;BME280;50681;53.334;-6.536;2022-11-25T00:04:54;99167.91;;;6.93;100.00
64354;BME280;50681;53.334;-6.536;2022-11-25T00:07:19;99175.56;;;6.85;100.00
64354;BME280;50681;53.334;-6.536;2022-11-25T00:09:45;99182.22;;;6.88;100.00
64354;BME280;50681;53.334;-6.536;2022-11-25T00:12:10;99194.06;;;6.87;100.00
64354;BME280;50681;53.334;-6.536;2022-11-25T00:14:36;99192.06;;;6.79;100.00
64354;BME280;50681;53.334;-6.536;2022-11-25T00:17:01;99214.09;;;6.89;100.00
64354;BME280;50681;53.334;-6.536;2022-11-25T00:19:27;99235.19;;;6.96;100.00
64354;BME280;50681;53.334;-6.536;2022-11-25T00:21:52;99220.16;;;6.81;100.00
64354;BME280;50681;53.334;-6.536;2022-11-25T00:24:17;99219.06;;;6.82;100.00
64354;BME280;50681;53.334;-6.536;2022-11-25T00:26:44;99249.22;;;6.93;100.00
64354;BME280;50681;53.334;-6.536;2022-11-25T00:29:10;99239.94;;;6.85;100.00
64354;BME280;50681;53.334;-6.536;2022-11-25T00:31:38;99242.94;;;6.84;100.00
64354;BME280;50681;53.334;-6.536;2022-11-25T00:34:10;99259.63;;;6.81;100.00
64354;BME280;50681;53.334;-6.536;2022-11-25T00:36:37;99273.22;;;6.84;100.00
64354;BME280;50681;53.334;-6.536;2022-11-25T00:39:06;99279.28;;;6.76;100.00
64354;BME280;50681;53.334;-6.536;2022-11-25T00:41:34;99279.19;;;6.81;100.00
64354;BME280;50681;53.334;-6.536;2022-11-25T00:44:19;99272.50;;;6.65;100.00
64354;BME280;50681;53.334;-6.536;2022-11-25T00:47:03;99295.19;;;6.86;100.00
64354;BME280;50681;53.334;-6.536;2022-11-25T00:49:29;99288.38;;;6.61;100.00
64354;BME280;50681;53.334;-6.536;2022-11-25T00:51:55;99304.34;;;6.52;100.00
64354;BME280;50681;53.334;-6.536;2022-11-25T00:54:21;99312.47;;;6.47;100.00
64354;BME280;50681;53.334;-6.536;2022-11-25T00:56:46;99319.66;;;6.32;100.00
64354;BME280;50681;53.334;-6.536;2022-11-25T00:59:12;99316.66;;;6.53;100.00
64354;BME280;50681;53.334;-6.536;2022-11-25T01:01:37;99344.22;;;6.59;100.00
64354;BME280;50681;53.334;-6.536;2022-11-25T01:04:04;99328.63;;;6.42;100.00
64354;BME280;50681;53.334;-6.536;2022-11-25T01:06:30;99350.53;;;6.30;100.00
64354;BME280;50681;53.334;-6.536;2022-11-25T01:08:56;99338.66;;;6.36;100.00
64354;BME280;50681;53.334;-6.536;2022-11-25T01:11:22;99347.63;;;6.26;100.00
64354;BME280;50681;53.334;-6.536;2022-11-25T01:13:48;99371.19;;;6.49;100.00
64354;BME280;50681;53.334;-6.536;2022-11-25T01:16:17;99368.06;;;6.41;100.00
64354;BME280;50681;53.334;-6.536;2022-11-25T01:18:43;99367.13;;;6.32;100.00
64354;BME280;50681;53.334;-6.536;2022-11-25T01:21:15;99370.00;;;6.36;100.00
64354;BME280;50681;53.334;-6.536;2022-11-25T01:23:41;99376.47;;;6.35;100.00
64354;BME280;50681;53.334;-6.536;2022-11-25T01:26:10;99374.28;;;6.37;100.00
64354;BME280;50681;53.334;-6.536;2022-11-25T01:28:36;99387.25;;;6.29;100.00
64354;BME280;50681;53.334;-6.536;2022-11-25T01:31:03;99387.41;;;6.38;100.00
64354;BME280;50681;53.334;-6.536;2022-11-25T01:33:30;99411.53;;;6.38;100.00
64354;BME280;50681;53.334;-6.536;2022-11-25T01:36:03;99415.38;;;6.51;100.00
64354;BME280;50681;53.334;-6.536;2022-11-25T01:38:30;99424.72;;;6.35;100.00
64354;BME280;50681;53.334;-6.536;2022-11-25T01:40:56;99444.00;;;6.37;100.00
64354;BME280;50681;53.334;-6.536;2022-11-25T01:43:22;99417.09;;;6.23;100.00
64354;BME280;50681;53.334;-6.536;2022-11-25T01:45:48;99446.16;;;6.35;100.00
64354;BME280;50681;53.334;-6.536;2022-11-25T01:48:18;99430.88;;;6.35;100.00
64354;BME280;50681;53.334;-6.536;2022-11-25T01:50:45;99462.69;;;6.42;100.00
64354;BME280;50681;53.334;-6.536;2022-11-25T01:53:15;99459.75;;;6.43;100.00
64354;BME280;50681;53.334;-6.536;2022-11-25T01:55:44;99468.06;;;6.42;100.00
64354;BME280;50681;53.334;-6.536;2022-11-25T01:58:15;99462.25;;;6.35;100.00
64354;BME280;50681;53.334;-6.536;2022-11-25T02:00:42;99460.22;;;6.26;100.00
64354;BME280;50681;53.334;-6.536;2022-11-25T02:03:20;99484.91;;;6.47;100.00
64354;BME280;50681;53.334;-6.536;2022-11-25T02:05:53;99478.00;;;6.41;100.00
64354;BME280;50681;53.334;-6.536;2022-11-25T02:08:22;99447.44;;;6.18;100.00
64354;BME280;50681;53.334;-6.536;2022-11-25T02:10:50;99482.56;;;6.41;100.00
64354;BME280;50681;53.334;-6.536;2022-11-25T02:13:17;99475.00;;;6.24;100.00
64354;BME280;50681;53.334;-6.536;2022-11-25T02:15:45;99488.50;;;6.38;100.00
64354;BME280;50681;53.334;-6.536;2022-11-25T02:18:10;99498.03;;;6.25;100.00
64354;BME280;50681;53.334;-6.536;2022-11-25T02:20:37;99522.72;;;6.46;100.00
64354;BME280;50681;53.334;-6.536;2022-11-25T02:23:29;99534.84;;;6.62;100.00
64354;BME280;50681;53.334;-6.536;2022-11-25T02:25:57;99526.84;;;6.38;100.00
64354;BME280;50681;53.334;-6.536;2022-11-25T02:28:25;99535.03;;;6.47;100.00
64354;BME280;50681;53.334;-6.536;2022-11-25T02:30:53;99547.94;;;6.45;100.00
64354;BME280;50681;53.334;-6.536;2022-11-25T02:33:19;99540.31;;;6.33;100.00
64354;BME280;50681;53.334;-6.536;2022-11-25T02:35:58;99565.63;;;6.70;100.00
64354;BME280;50681;53.334;-6.536;2022-11-25T02:38:38;99565.31;;;6.72;100.00
64354;BME280;50681;53.334;-6.536;2022-11-25T02:43:38;99570.75;;;6.67;100.00
64354;BME280;50681;53.334;-6.536;2022-11-25T02:46:06;99569.97;;;6.66;100.00
64354;BME280;50681;53.334;-6.536;2022-11-25T02:48:33;99545.75;;;6.47;100.00
64354;BME280;50681;53.334;-6.536;2022-11-25T02:51:03;99557.31;;;6.47;100.00
64354;BME280;50681;53.334;-6.536;2022-11-25T02:53:28;99569.09;;;6.46;100.00
64354;BME280;50681;53.334;-6.536;2022-11-25T02:55:54;99568.28;;;6.46;100.00
64354;BME280;50681;53.334;-6.536;2022-11-25T02:58:19;99596.09;;;6.55;100.00
64354;BME280;50681;53.334;-6.536;2022-11-25T03:00:45;99569.75;;;6.38;100.00
64354;BME280;50681;53.334;-6.536;2022-11-25T03:03:11;99596.13;;;6.50;100.00
64354;BME280;50681;53.334;-6.536;2022-11-25T03:05:37;99601.56;;;6.45;100.00
64354;BME280;50681;53.334;-6.536;2022-11-25T03:08:03;99614.91;;;6.50;100.00
64354;BME280;50681;53.334;-6.536;2022-11-25T03:10:31;99600.53;;;6.41;100.00
64354;BME280;50681;53.334;-6.536;2022-11-25T03:12:57;99606.91;;;6.45;100.00
64354;BME280;50681;53.334;-6.536;2022-11-25T03:15:23;99614.25;;;6.39;100.00
64354;BME280;50681;53.334;-6.536;2022-11-25T03:17:49;99601.81;;;6.49;100.00
64354;BME280;50681;53.334;-6.536;2022-11-25T03:20:15;99620.34;;;6.45;100.00
64354;BME280;50681;53.334;-6.536;2022-11-25T03:22:41;99626.78;;;6.44;100.00
64354;BME280;50681;53.334;-6.536;2022-11-25T03:25:08;99646.88;;;6.46;100.00
64354;BME280;50681;53.334;-6.536;2022-11-25T03:27:33;99632.53;;;6.32;100.00
64354;BME280;50681;53.334;-6.536;2022-11-25T03:29:59;99656.06;;;6.40;100.00
64354;BME280;50681;53.334;-6.536;2022-11-25T03:32:29;99660.81;;;6.49;100.00
64354;BME280;50681;53.334;-6.536;2022-11-25T03:34:54;99646.81;;;6.22;100.00
64354;BME280;50681;53.334;-6.536;2022-11-25T03:37:20;99636.97;;;6.17;100.00
64354;BME280;50681;53.334;-6.536;2022-11-25T03:39:45;99653.56;;;6.20;100.00
64354;BME280;50681;53.334;-6.536;2022-11-25T03:42:11;99642.06;;;6.14;100.00
64354;BME280;50681;53.334;-6.536;2022-11-25T03:44:36;99658.84;;;6.30;100.00
64354;BME280;50681;53.334;-6.536;2022-11-25T03:47:02;99655.94;;;6.21;100.00
64354;BME280;50681;53.334;-6.536;2022-11-25T03:49:28;99662.91;;;6.22;100.00
64354;BME280;50681;53.334;-6.536;2022-11-25T03:51:54;99689.91;;;6.60;100.00
64354;BME280;50681;53.334;-6.536;2022-11-25T03:54:20;99697.06;;;6.41;100.00
64354;BME280;50681;53.334;-6.536;2022-11-25T03:56:45;99696.94;;;6.27;100.00
64354;BME280;50681;53.334;-6.536;2022-11-25T03:59:10;99694.50;;;6.25;100.00
64354;BME280;50681;53.334;-6.536;2022-11-25T04:01:36;99705.19;;;6.30;100.00
64354;BME280;50681;53.334;-6.536;2022-11-25T04:04:02;99704.13;;;6.31;100.00
64354;BME280;50681;53.334;-6.536;2022-11-25T04:06:27;99695.63;;;6.19;100.00
64354;BME280;50681;53.334;-6.536;2022-11-25T04:08:53;99721.28;;;6.30;100.00
64354;BME280;50681;53.334;-6.536;2022-11-25T04:11:20;99716.31;;;6.48;100.00
64354;BME280;50681;53.334;-6.536;2022-11-25T04:13:45;99693.00;;;6.14;100.00
64354;BME280;50681;53.334;-6.536;2022-11-25T04:16:18;99736.38;;;6.56;100.00
64354;BME280;50681;53.334;-6.536;2022-11-25T04:18:46;99731.44;;;6.33;100.00
64354;BME280;50681;53.334;-6.536;2022-11-25T04:21:11;99733.09;;;6.29;100.00
64354;BME280;50681;53.334;-6.536;2022-11-25T04:23:37;99734.69;;;6.30;100.00
64354;BME280;50681;53.334;-6.536;2022-11-25T04:26:02;99734.47;;;6.27;100.00
64354;BME280;50681;53.334;-6.536;2022-11-25T04:28:29;99760.38;;;6.37;100.00
64354;BME280;50681;53.334;-6.536;2022-11-25T04:30:54;99755.91;;;6.27;100.00
64354;BME280;50681;53.334;-6.536;2022-11-25T04:33:20;99770.31;;;6.36;100.00
64354;BME280;50681;53.334;-6.536;2022-11-25T04:35:46;99785.50;;;6.46;100.00
64354;BME280;50681;53.334;-6.536;2022-11-25T04:38:12;99770.63;;;6.29;100.00
64354;BME280;50681;53.334;-6.536;2022-11-25T04:40:37;99785.09;;;6.28;100.00
64354;BME280;50681;53.334;-6.536;2022-11-25T04:43:02;99787.56;;;6.25;100.00
64354;BME280;50681;53.334;-6.536;2022-11-25T04:45:28;99792.38;;;6.28;100.00
64354;BME280;50681;53.334;-6.536;2022-11-25T04:47:53;99806.56;;;6.28;100.00
64354;BME280;50681;53.334;-6.536;2022-11-25T04:50:21;99799.81;;;6.36;100.00
64354;BME280;50681;53.334;-6.536;2022-11-25T04:52:48;99805.25;;;6.26;100.00
64354;BME280;50681;53.334;-6.536;2022-11-25T04:55:13;99794.56;;;6.21;100.00
64354;BME280;50681;53.334;-6.536;2022-11-25T04:57:39;99818.31;;;6.32;100.00
64354;BME280;50681;53.334;-6.536;2022-11-25T05:00:05;99808.44;;;6.28;100.00
64354;BME280;50681;53.334;-6.536;2022-11-25T05:02:31;99830.84;;;6.47;100.00
64354;BME280;50681;53.334;-6.536;2022-11-25T05:04:56;99823.72;;;6.27;100.00
64354;BME280;50681;53.334;-6.536;2022-11-25T05:07:24;99828.22;;;6.37;100.00
64354;BME280;50681;53.334;-6.536;2022-11-25T05:09:51;99812.81;;;6.13;100.00
64354;BME280;50681;53.334;-6.536;2022-11-25T05:12:20;99836.53;;;6.36;100.00
64354;BME280;50681;53.334;-6.536;2022-11-25T05:14:47;99836.34;;;6.27;100.00
64354;BME280;50681;53.334;-6.536;2022-11-25T05:17:15;99844.59;;;6.36;100.00
64354;BME280;50681;53.334;-6.536;2022-11-25T05:19:42;99820.56;;;6.15;100.00
64354;BME280;50681;53.334;-6.536;2022-11-25T05:22:12;99835.78;;;6.30;100.00
64354;BME280;50681;53.334;-6.536;2022-11-25T05:24:38;99867.66;;;6.31;100.00
64354;BME280;50681;53.334;-6.536;2022-11-25T05:27:04;99860.69;;;6.30;100.00
64354;BME280;50681;53.334;-6.536;2022-11-25T05:29:29;99849.50;;;6.18;100.00
64354;BME280;50681;53.334;-6.536;2022-11-25T05:31:55;99853.81;;;6.14;100.00
64354;BME280;50681;53.334;-6.536;2022-11-25T05:34:20;99859.72;;;6.16;100.00
64354;BME280;50681;53.334;-6.536;2022-11-25T05:36:46;99865.63;;;6.13;100.00
64354;BME280;50681;53.334;-6.536;2022-11-25T05:39:11;99869.66;;;6.15;100.00
64354;BME280;50681;53.334;-6.536;2022-11-25T05:41:36;99851.72;;;6.06;100.00
64354;BME280;50681;53.334;-6.536;2022-11-25T05:44:02;99894.78;;;6.25;100.00
64354;BME280;50681;53.334;-6.536;2022-11-25T05:46:29;99887.03;;;6.18;100.00
64354;BME280;50681;53.334;-6.536;2022-11-25T05:48:55;99903.41;;;6.16;100.00
64354;BME280;50681;53.334;-6.536;2022-11-25T05:51:21;99903.72;;;5.99;100.00
64354;BME280;50681;53.334;-6.536;2022-11-25T05:53:47;99904.25;;;6.01;100.00
64354;BME280;50681;53.334;-6.536;2022-11-25T05:56:12;99908.53;;;6.08;100.00
64354;BME280;50681;53.334;-6.536;2022-11-25T05:58:38;99907.75;;;5.97;100.00
64354;BME280;50681;53.334;-6.536;2022-11-25T06:01:07;99924.91;;;6.06;100.00
64354;BME280;50681;53.334;-6.536;2022-11-25T06:03:33;99931.88;;;5.97;100.00
64354;BME280;50681;53.334;-6.536;2022-11-25T06:05:59;99926.78;;;5.85;100.00
64354;BME280;50681;53.334;-6.536;2022-11-25T06:08:26;99935.06;;;5.99;100.00
64354;BME280;50681;53.334;-6.536;2022-11-25T06:10:52;99950.91;;;6.00;100.00
64354;BME280;50681;53.334;-6.536;2022-11-25T06:13:18;99946.06;;;5.97;100.00
64354;BME280;50681;53.334;-6.536;2022-11-25T06:16:10;99959.50;;;5.71;100.00
64354;BME280;50681;53.334;-6.536;2022-11-25T06:18:36;99962.09;;;6.18;100.00
64354;BME280;50681;53.334;-6.536;2022-11-25T06:21:03;99966.41;;;6.14;100.00
64354;BME280;50681;53.334;-6.536;2022-11-25T06:23:29;99971.59;;;5.58;100.00
64354;BME280;50681;53.334;-6.536;2022-11-25T06:26:22;99961.69;;;5.38;100.00
64354;BME280;50681;53.334;-6.536;2022-11-25T06:28:47;99981.69;;;6.13;100.00
64354;BME280;50681;53.334;-6.536;2022-11-25T06:31:17;99995.53;;;6.41;100.00
64354;BME280;50681;53.334;-6.536;2022-11-25T06:33:48;99993.63;;;6.42;100.00
64354;BME280;50681;53.334;-6.536;2022-11-25T06:36:14;100003.91;;;6.24;100.00
64354;BME280;50681;53.334;-6.536;2022-11-25T06:38:50;100002.53;;;6.32;100.00
64354;BME280;50681;53.334;-6.536;2022-11-25T06:41:17;100003.09;;;6.24;100.00
64354;BME280;50681;53.334;-6.536;2022-11-25T06:43:43;100015.97;;;6.27;100.00
64354;BME280;50681;53.334;-6.536;2022-11-25T06:46:13;100008.69;;;6.32;100.00
64354;BME280;50681;53.334;-6.536;2022-11-25T06:48:39;100028.28;;;6.28;100.00
64354;BME280;50681;53.334;-6.536;2022-11-25T06:51:13;100021.03;;;6.33;100.00
64354;BME280;50681;53.334;-6.536;2022-11-25T06:53:39;100019.47;;;6.17;100.00
64354;BME280;50681;53.334;-6.536;2022-11-25T06:56:11;100032.56;;;6.39;100.00
64354;BME280;50681;53.334;-6.536;2022-11-25T06:58:38;100022.94;;;6.23;100.00
64354;BME280;50681;53.334;-6.536;2022-11-25T07:01:10;100039.03;;;6.28;100.00
64354;BME280;50681;53.334;-6.536;2022-11-25T07:03:36;100032.34;;;6.10;100.00
64354;BME280;50681;53.334;-6.536;2022-11-25T07:06:03;100055.91;;;6.18;100.00
64354;BME280;50681;53.334;-6.536;2022-11-25T07:08:30;100065.03;;;6.22;100.00
64354;BME280;50681;53.334;-6.536;2022-11-25T07:11:02;100054.84;;;6.24;100.00
64354;BME280;50681;53.334;-6.536;2022-11-25T07:13:28;100067.72;;;6.17;100.00
64354;BME280;50681;53.334;-6.536;2022-11-25T07:15:54;100066.41;;;6.09;100.00
64354;BME280;50681;53.334;-6.536;2022-11-25T07:18:21;100061.59;;;6.01;100.00
64354;BME280;50681;53.334;-6.536;2022-11-25T07:20:46;100082.75;;;6.13;100.00
64354;BME280;50681;53.334;-6.536;2022-11-25T07:23:12;100091.31;;;6.15;100.00
64354;BME280;50681;53.334;-6.536;2022-11-25T07:25:37;100071.50;;;6.06;100.00
64354;BME280;50681;53.334;-6.536;2022-11-25T07:28:03;100076.59;;;6.02;100.00
64354;BME280;50681;53.334;-6.536;2022-11-25T07:30:28;100088.94;;;6.03;100.00
64354;BME280;50681;53.334;-6.536;2022-11-25T07:32:54;100076.03;;;6.00;100.00
64354;BME280;50681;53.334;-6.536;2022-11-25T07:35:20;100089.97;;;5.92;100.00
64354;BME280;50681;53.334;-6.536;2022-11-25T07:37:45;100083.56;;;5.77;100.00
64354;BME280;50681;53.334;-6.536;2022-11-25T07:40:11;100113.78;;;5.47;100.00
64354;BME280;50681;53.334;-6.536;2022-11-25T07:42:36;100108.97;;;5.49;100.00
64354;BME280;50681;53.334;-6.536;2022-11-25T07:45:02;100101.19;;;5.32;100.00
64354;BME280;50681;53.334;-6.536;2022-11-25T07:47:29;100128.81;;;5.63;100.00
64354;BME280;50681;53.334;-6.536;2022-11-25T07:49:54;100120.50;;;5.49;100.00
64354;BME280;50681;53.334;-6.536;2022-11-25T07:52:21;100140.53;;;5.41;100.00
64354;BME280;50681;53.334;-6.536;2022-11-25T07:54:46;100153.97;;;5.62;100.00
64354;BME280;50681;53.334;-6.536;2022-11-25T07:57:11;100151.81;;;5.54;100.00
64354;BME280;50681;53.334;-6.536;2022-11-25T07:59:37;100153.97;;;5.52;100.00
64354;BME280;50681;53.334;-6.536;2022-11-25T08:02:05;100170.59;;;5.64;100.00
64354;BME280;50681;53.334;-6.536;2022-11-25T08:04:33;100187.72;;;5.63;100.00
64354;BME280;50681;53.334;-6.536;2022-11-25T08:06:59;100177.03;;;5.73;100.00
64354;BME280;50681;53.334;-6.536;2022-11-25T08:09:24;100188.28;;;5.81;100.00
64354;BME280;50681;53.334;-6.536;2022-11-25T08:11:50;100183.22;;;5.74;100.00
64354;BME280;50681;53.334;-6.536;2022-11-25T08:14:16;100196.38;;;6.07;100.00
64354;BME280;50681;53.334;-6.536;2022-11-25T08:16:42;100207.34;;;5.84;100.00
64354;BME280;50681;53.334;-6.536;2022-11-25T08:19:11;100212.97;;;5.93;100.00
64354;BME280;50681;53.334;-6.536;2022-11-25T08:21:37;100210.28;;;5.88;100.00
64354;BME280;50681;53.334;-6.536;2022-11-25T08:24:03;100211.63;;;5.85;100.00
64354;BME280;50681;53.334;-6.536;2022-11-25T08:26:31;100189.38;;;5.90;100.00
64354;BME280;50681;53.334;-6.536;2022-11-25T08:28:59;100235.75;;;5.91;100.00
64354;BME280;50681;53.334;-6.536;2022-11-25T08:31:31;100233.88;;;5.96;100.00
64354;BME280;50681;53.334;-6.536;2022-11-25T08:33:58;100237.97;;;6.09;100.00
64354;BME280;50681;53.334;-6.536;2022-11-25T08:36:24;100255.38;;;6.17;100.00
64354;BME280;50681;53.334;-6.536;2022-11-25T08:38:52;100277.34;;;6.14;100.00
64354;BME280;50681;53.334;-6.536;2022-11-25T08:41:27;100266.09;;;6.22;100.00
64354;BME280;50681;53.334;-6.536;2022-11-25T08:43:54;100281.63;;;6.10;100.00
64354;BME280;50681;53.334;-6.536;2022-11-25T08:46:26;100264.47;;;6.06;100.00
64354;BME280;50681;53.334;-6.536;2022-11-25T08:48:52;100276.81;;;6.07;100.00
64354;BME280;50681;53.334;-6.536;2022-11-25T08:51:22;100286.78;;;6.47;100.00
64354;BME280;50681;53.334;-6.536;2022-11-25T08:53:47;100276.84;;;6.32;100.00
64354;BME280;50681;53.334;-6.536;2022-11-25T08:56:16;100291.81;;;6.13;100.00
64354;BME280;50681;53.334;-6.536;2022-11-25T08:58:42;100300.44;;;6.30;100.00
64354;BME280;50681;53.334;-6.536;2022-11-25T09:01:08;100315.75;;;6.35;100.00
64354;BME280;50681;53.334;-6.536;2022-11-25T09:03:38;100307.41;;;6.37;100.00
64354;BME280;50681;53.334;-6.536;2022-11-25T09:06:04;100308.50;;;6.61;100.00
64354;BME280;50681;53.334;-6.536;2022-11-25T09:08:30;100304.75;;;6.62;100.00
64354;BME280;50681;53.334;-6.536;2022-11-25T09:10:57;100302.59;;;6.65;100.00
64354;BME280;50681;53.334;-6.536;2022-11-25T09:13:22;100326.22;;;6.73;100.00
64354;BME280;50681;53.334;-6.536;2022-11-25T09:15:48;100323.53;;;6.78;100.00
64354;BME280;50681;53.334;-6.536;2022-11-25T09:18:13;100321.66;;;6.79;100.00
64354;BME280;50681;53.334;-6.536;2022-11-25T09:20:40;100329.19;;;6.82;100.00
64354;BME280;50681;53.334;-6.536;2022-11-25T09:23:07;100341.50;;;7.03;100.00
64354;BME280;50681;53.334;-6.536;2022-11-25T09:25:33;100339.63;;;7.04;100.00
64354;BME280;50681;53.334;-6.536;2022-11-25T09:27:58;100336.69;;;6.95;100.00
64354;BME280;50681;53.334;-6.536;2022-11-25T09:30:24;100355.47;;;7.11;100.00
64354;BME280;50681;53.334;-6.536;2022-11-25T09:32:52;100358.13;;;7.16;100.00
64354;BME280;50681;53.334;-6.536;2022-11-25T09:35:18;100361.63;;;7.16;100.00
64354;BME280;50681;53.334;-6.536;2022-11-25T09:37:44;100377.16;;;7.35;100.00
64354;BME280;50681;53.334;-6.536;2022-11-25T09:40:26;100379.53;;;7.62;100.00
64354;BME280;50681;53.334;-6.536;2022-11-25T09:42:59;100399.97;;;7.58;100.00
64354;BME280;50681;53.334;-6.536;2022-11-25T09:45:55;100396.47;;;7.53;100.00
64354;BME280;50681;53.334;-6.536;2022-11-25T09:48:53;100396.72;;;7.67;100.00
64354;BME280;50681;53.334;-6.536;2022-11-25T09:51:39;100391.06;;;7.63;100.00
64354;BME280;50681;53.334;-6.536;2022-11-25T09:54:16;100388.91;;;7.70;100.00
64354;BME280;50681;53.334;-6.536;2022-11-25T10:02:43;100437.94;;;8.12;100.00
64354;BME280;50681;53.334;-6.536;2022-11-25T10:05:31;100447.56;;;8.29;100.00
64354;BME280;50681;53.334;-6.536;2022-11-25T10:08:05;100425.56;;;8.16;100.00
64354;BME280;50681;53.334;-6.536;2022-11-25T10:10:48;100431.19;;;8.25;100.00
64354;BME280;50681;53.334;-6.536;2022-11-25T10:13:46;100429.59;;;8.19;100.00
64354;BME280;50681;53.334;-6.536;2022-11-25T10:16:29;100478.44;;;8.47;100.00
64354;BME280;50681;53.334;-6.536;2022-11-25T10:19:01;100462.84;;;8.49;100.00
64354;BME280;50681;53.334;-6.536;2022-11-25T10:24:34;100471.44;;;8.46;100.00
64354;BME280;50681;53.334;-6.536;2022-11-25T10:27:40;100470.31;;;8.62;100.00
64354;BME280;50681;53.334;-6.536;2022-11-25T10:30:23;100453.13;;;8.48;100.00
64354;BME280;50681;53.334;-6.536;2022-11-25T10:36:26;100494.94;;;8.85;100.00
64354;BME280;50681;53.334;-6.536;2022-11-25T10:42:19;100512.84;;;9.05;100.00
64354;BME280;50681;53.334;-6.536;2022-11-25T10:45:00;100497.56;;;8.95;100.00
64354;BME280;50681;53.334;-6.536;2022-11-25T10:48:24;100524.13;;;9.07;100.00
64354;BME280;50681;53.334;-6.536;2022-11-25T10:51:27;100515.25;;;9.12;100.00
64354;BME280;50681;53.334;-6.536;2022-11-25T10:54:11;100532.75;;;9.09;100.00
64354;BME280;50681;53.334;-6.536;2022-11-25T10:59:56;100507.16;;;9.12;100.00
64354;BME280;50681;53.334;-6.536;2022-11-25T11:02:39;100522.44;;;9.22;100.00
64354;BME280;50681;53.334;-6.536;2022-11-25T11:08:08;100519.44;;;9.29;100.00
64354;BME280;50681;53.334;-6.536;2022-11-25T11:10:41;100541.03;;;9.23;100.00
64354;BME280;50681;53.334;-6.536;2022-11-25T11:13:28;100504.94;;;9.19;100.00
64354;BME280;50681;53.334;-6.536;2022-11-25T11:21:35;100519.28;;;9.49;100.00
64354;BME280;50681;53.334;-6.536;2022-11-25T11:24:31;100548.78;;;9.65;100.00
64354;BME280;50681;53.334;-6.536;2022-11-25T11:32:36;100523.38;;;9.41;100.00
64354;BME280;50681;53.334;-6.536;2022-11-25T11:50:24;100573.25;;;10.03;100.00
64354;BME280;50681;53.334;-6.536;2022-11-25T12:02:21;100583.84;;;9.94;100.00
64354;BME280;50681;53.334;-6.536;2022-11-25T12:08:08;100600.22;;;10.33;100.00
64354;BME280;50681;53.334;-6.536;2022-11-25T12:14:29;100612.84;;;10.42;100.00
64354;BME280;50681;53.334;-6.536;2022-11-25T12:17:08;100594.41;;;10.50;100.00
64354;BME280;50681;53.334;-6.536;2022-11-25T12:19:48;100593.41;;;10.65;100.00
64354;BME280;50681;53.334;-6.536;2022-11-25T12:22:28;100614.63;;;10.96;100.00
64354;BME280;50681;53.334;-6.536;2022-11-25T12:25:05;100621.72;;;11.11;100.00
64354;BME280;50681;53.334;-6.536;2022-11-25T12:27:37;100623.97;;;11.03;100.00
64354;BME280;50681;53.334;-6.536;2022-11-25T12:30:11;100625.59;;;11.05;100.00
64354;BME280;50681;53.334;-6.536;2022-11-25T12:32:57;100627.19;;;11.06;100.00
64354;BME280;50681;53.334;-6.536;2022-11-25T12:46:35;100631.81;;;11.05;100.00
64354;BME280;50681;53.334;-6.536;2022-11-25T12:49:02;100653.94;;;11.26;100.00
64354;BME280;50681;53.334;-6.536;2022-11-25T13:00:52;100652.84;;;11.85;100.00
64354;BME280;50681;53.334;-6.536;2022-11-25T13:17:25;100662.41;;;11.77;100.00
64354;BME280;50681;53.334;-6.536;2022-11-25T13:25:45;100701.47;;;11.71;100.00
64354;BME280;50681;53.334;-6.536;2022-11-25T13:28:44;100703.72;;;11.64;100.00
64354;BME280;50681;53.334;-6.536;2022-11-25T13:31:19;100701.25;;;11.67;100.00
64354;BME280;50681;53.334;-6.536;2022-11-25T13:50:23;100743.97;;;11.70;100.00
64354;BME280;50681;53.334;-6.536;2022-11-25T13:58:24;100749.38;;;11.70;100.00
64354;BME280;50681;53.334;-6.536;2022-11-25T14:49:59;100791.38;;;10.90;100.00
64354;BME280;50681;53.334;-6.536;2022-11-25T14:52:52;100799.28;;;10.81;100.00
64354;BME280;50681;53.334;-6.536;2022-11-25T14:55:38;100791.44;;;10.55;100.00
64354;BME280;50681;53.334;-6.536;2022-11-25T15:04:18;100783.47;;;10.39;100.00
64354;BME280;50681;53.334;-6.536;2022-11-25T15:06:56;100817.38;;;10.51;100.00
64354;BME280;50681;53.334;-6.536;2022-11-25T15:09:27;100812.06;;;10.40;100.00
64354;BME280;50681;53.334;-6.536;2022-11-25T15:11:58;100792.97;;;10.26;100.00
64354;BME280;50681;53.334;-6.536;2022-11-25T15:14:28;100796.28;;;10.13;100.00
64354;BME280;50681;53.334;-6.536;2022-11-25T15:16:55;100819.69;;;10.28;100.00
64354;BME280;50681;53.334;-6.536;2022-11-25T15:19:24;100843.94;;;10.33;100.00
64354;BME280;50681;53.334;-6.536;2022-11-25T15:22:00;100824.56;;;10.26;100.00
64354;BME280;50681;53.334;-6.536;2022-11-25T15:24:42;100848.00;;;10.30;100.00
64354;BME280;50681;53.334;-6.536;2022-11-25T15:27:23;100852.25;;;10.42;100.00
64354;BME280;50681;53.334;-6.536;2022-11-25T15:29:54;100851.75;;;10.35;100.00
64354;BME280;50681;53.334;-6.536;2022-11-25T15:32:28;100828.28;;;10.35;100.00
64354;BME280;50681;53.334;-6.536;2022-11-25T15:34:58;100828.47;;;10.04;100.00
64354;BME280;50681;53.334;-6.536;2022-11-25T15:37:24;100844.03;;;10.18;100.00
64354;BME280;50681;53.334;-6.536;2022-11-25T15:40:29;100851.84;;;10.19;100.00
64354;BME280;50681;53.334;-6.536;2022-11-25T15:42:56;100840.69;;;9.81;100.00
64354;BME280;50681;53.334;-6.536;2022-11-25T15:45:31;100860.94;;;9.78;100.00
64354;BME280;50681;53.334;-6.536;2022-11-25T15:47:59;100867.41;;;9.82;100.00
64354;BME280;50681;53.334;-6.536;2022-11-25T15:50:26;100826.06;;;9.97;100.00
64354;BME280;50681;53.334;-6.536;2022-11-25T15:52:54;100864.22;;;10.25;100.00
64354;BME280;50681;53.334;-6.536;2022-11-25T15:55:34;100866.19;;;10.14;100.00
64354;BME280;50681;53.334;-6.536;2022-11-25T15:58:09;100864.25;;;10.20;100.00
64354;BME280;50681;53.334;-6.536;2022-11-25T16:00:37;100864.31;;;10.05;100.00